Time;durP1;ratioP1;P1;durP2;ratioP2;P2;SDS_P1;SDS_P2;PMS_P1;PMS_P2;Temp;Humidity;BMP_temperature;BMP_pressure;BME280_temperature;BME280_humidity;BME280_pressure;Samples;Min_cycle;Max_cycle;Signal;HPM_P1;HPM_P2
2021/08/26 00:07:56;;;;;;;20.75;5.53;;;15.50;94.40;;;;;;5032733;28;20134;-59
2021/08/26 00:10:25;;;;;;;19.20;4.63;;;15.40;94.30;;;;;;5051385;28;20512;-59
2021/08/26 00:12:53;;;;;;;19.45;4.72;;;15.40;94.40;;;;;;5050378;28;20118;-59
2021/08/26 00:15:20;;;;;;;18.75;5.38;;;15.40;94.40;;;;;;5041838;28;20075;-59
2021/08/26 00:17:45;;;;;;;17.98;5.03;;;15.40;94.40;;;;;;5034420;28;20141;-59
2021/08/26 00:20:12;;;;;;;22.25;4.90;;;15.40;94.30;;;;;;5044370;28;20505;-59
2021/08/26 00:22:38;;;;;;;19.02;4.45;;;15.30;94.20;;;;;;5044468;28;20047;-59
2021/08/26 00:25:05;;;;;;;22.45;4.50;;;15.30;94.30;;;;;;5052487;28;20033;-59
2021/08/26 00:27:31;;;;;;;19.38;5.25;;;15.30;94.20;;;;;;5048652;28;20493;-59
2021/08/26 00:29:56;;;;;;;21.13;5.40;;;15.30;94.20;;;;;;5052529;28;20091;-59
2021/08/26 00:32:22;;;;;;;23.45;5.85;;;15.40;94.30;;;;;;5046128;28;20048;-59
2021/08/26 00:34:47;;;;;;;20.98;4.95;;;15.30;94.30;;;;;;5038872;28;20044;-59
2021/08/26 00:37:13;;;;;;;19.13;5.07;;;15.30;94.40;;;;;;5045724;28;20071;-58
2021/08/26 00:39:39;;;;;;;20.38;4.90;;;15.30;94.50;;;;;;5048116;28;20455;-59
2021/08/26 00:42:06;;;;;;;25.10;4.70;;;15.30;94.50;;;;;;5056553;28;20481;-59
2021/08/26 00:44:31;;;;;;;19.00;5.13;;;15.30;94.40;;;;;;5050395;28;20469;-58
2021/08/26 00:46:57;;;;;;;18.08;5.18;;;15.30;94.50;;;;;;5055028;28;20124;-59
2021/08/26 00:49:22;;;;;;;20.17;4.47;;;15.20;94.50;;;;;;5051639;28;20481;-59
2021/08/26 00:51:48;;;;;;;17.45;4.45;;;15.20;94.50;;;;;;5051737;28;20041;-59
2021/08/26 00:54:14;;;;;;;23.10;5.28;;;15.20;94.50;;;;;;5052067;28;20079;-58
2021/08/26 00:56:39;;;;;;;18.25;6.10;;;15.20;94.50;;;;;;5033815;28;20489;-59
2021/08/26 00:59:07;;;;;;;19.67;4.90;;;15.20;94.60;;;;;;5031946;28;20040;-59
2021/08/26 01:01:45;;;;;;;19.80;4.60;;;15.20;94.70;;;;;;5045152;28;20075;-59
2021/08/26 01:04:39;;;;;;;25.60;4.90;;;15.10;94.70;;;;;;5034760;28;20048;-59
2021/08/26 01:07:36;;;;;;;24.10;5.30;;;15.10;94.80;;;;;;5050395;28;20447;-59
2021/08/26 01:10:03;;;;;;;18.88;4.88;;;15.10;94.80;;;;;;5051264;28;20087;-59
2021/08/26 01:12:30;;;;;;;21.50;5.28;;;15.10;94.80;;;;;;5034542;28;20559;-59
2021/08/26 01:14:56;;;;;;;20.52;4.93;;;15.10;94.80;;;;;;5045662;28;20489;-59
2021/08/26 01:17:27;;;;;;;23.52;5.07;;;15.10;94.80;;;;;;5035716;28;20033;-59
2021/08/26 01:19:53;;;;;;;18.67;4.82;;;15.10;94.80;;;;;;5034088;28;20124;-59
2021/08/26 01:22:20;;;;;;;22.75;4.68;;;15.00;94.60;;;;;;5036403;28;20037;-59
2021/08/26 01:25:07;;;;;;;18.17;4.68;;;15.00;94.60;;;;;;5042475;28;20128;-59
2021/08/26 01:27:37;;;;;;;14.52;3.97;;;15.00;94.50;;;;;;5047286;28;20048;-59
2021/08/26 01:30:05;;;;;;;17.08;4.30;;;15.00;94.40;;;;;;5044316;28;20420;-58
2021/08/26 01:32:31;;;;;;;17.55;4.18;;;15.10;94.40;;;;;;5047023;28;20033;-59
2021/08/26 01:34:57;;;;;;;15.65;4.40;;;15.10;94.40;;;;;;5042143;28;20081;-59
2021/08/26 01:37:24;;;;;;;23.80;4.70;;;15.00;94.30;;;;;;5050676;28;20040;-59
2021/08/26 01:39:52;;;;;;;18.15;4.03;;;15.10;94.30;;;;;;5061493;28;20033;-59
2021/08/26 01:42:25;;;;;;;19.00;4.60;;;15.00;94.20;;;;;;5040659;28;20037;-59
2021/08/26 01:44:53;;;;;;;16.30;4.35;;;15.10;94.00;;;;;;5045276;28;20042;-59
2021/08/26 01:47:20;;;;;;;20.15;4.15;;;15.10;94.10;;;;;;5045125;28;20064;-59
2021/08/26 01:49:51;;;;;;;13.13;3.80;;;15.10;94.00;;;;;;5057862;28;20038;-59
2021/08/26 01:52:19;;;;;;;17.67;4.15;;;15.00;93.90;;;;;;5035011;28;20037;-59
2021/08/26 01:54:58;;;;;;;21.27;4.53;;;15.10;94.00;;;;;;5038779;28;20033;-59
2021/08/26 01:57:26;;;;;;;20.00;3.75;;;15.10;94.00;;;;;;5050258;28;20493;-59
2021/08/26 01:59:52;;;;;;;16.27;3.67;;;15.10;93.90;;;;;;5067677;28;20042;-58
2021/08/26 02:02:18;;;;;;;16.65;4.07;;;15.00;93.90;;;;;;5058393;28;20032;-59
2021/08/26 02:04:44;;;;;;;15.43;3.60;;;15.10;93.80;;;;;;5069512;28;20094;-59
2021/08/26 02:07:09;;;;;;;21.17;4.00;;;15.00;93.70;;;;;;5069484;28;20037;-58
2021/08/26 02:09:35;;;;;;;16.25;3.58;;;15.00;93.70;;;;;;5058037;28;20128;-59
2021/08/26 02:12:01;;;;;;;19.33;4.05;;;15.10;93.70;;;;;;5050185;28;20051;-59
2021/08/26 02:14:26;;;;;;;20.05;4.35;;;15.10;93.60;;;;;;5060285;28;20032;-59
2021/08/26 02:16:52;;;;;;;18.23;3.90;;;15.00;93.60;;;;;;5064832;28;20173;-59
2021/08/26 02:19:17;;;;;;;12.57;3.70;;;15.10;93.60;;;;;;5050493;28;20052;-59
2021/08/26 02:21:43;;;;;;;17.83;3.40;;;15.00;93.50;;;;;;5063404;28;20559;-59
2021/08/26 02:24:09;;;;;;;14.00;3.72;;;15.10;93.50;;;;;;5069759;28;20033;-59
2021/08/26 02:26:34;;;;;;;18.50;3.88;;;15.00;93.40;;;;;;5057652;28;20045;-59
2021/08/26 02:29:00;;;;;;;14.52;3.78;;;15.00;93.40;;;;;;5062913;28;20374;-59
2021/08/26 02:31:29;;;;;;;12.98;3.55;;;15.10;93.50;;;;;;5048871;28;20076;-59
2021/08/26 02:33:55;;;;;;;20.38;3.38;;;15.00;93.40;;;;;;5052286;28;20048;-59
2021/08/26 02:36:22;;;;;;;20.23;3.88;;;15.10;93.40;;;;;;5044747;28;20397;-57
2021/08/26 02:38:48;;;;;;;18.08;3.42;;;15.10;93.30;;;;;;5044388;28;20059;-59
2021/08/26 02:41:14;;;;;;;14.15;3.22;;;15.10;93.30;;;;;;5059815;28;20060;-59
2021/08/26 02:43:40;;;;;;;14.50;3.28;;;15.10;93.20;;;;;;5059609;28;20047;-59
2021/08/26 02:46:06;;;;;;;11.80;3.38;;;15.10;93.30;;;;;;5041144;28;20420;-59
2021/08/26 02:48:31;;;;;;;11.90;3.05;;;15.00;93.20;;;;;;5065321;28;20113;-59
2021/08/26 02:50:57;;;;;;;14.30;3.13;;;15.00;93.30;;;;;;5048883;28;20171;-59
2021/08/26 02:53:22;;;;;;;15.05;3.25;;;15.00;93.20;;;;;;5030877;28;20175;-58
2021/08/26 02:55:48;;;;;;;12.45;2.78;;;15.00;93.20;;;;;;5040239;28;20071;-59
2021/08/26 02:58:13;;;;;;;19.05;3.55;;;15.00;93.20;;;;;;5041830;28;20068;-59
2021/08/26 03:00:39;;;;;;;15.55;3.10;;;15.00;93.20;;;;;;5044382;28;20062;-59
2021/08/26 03:03:04;;;;;;;12.73;2.90;;;15.00;93.30;;;;;;5035757;28;20037;-58
2021/08/26 03:05:30;;;;;;;15.15;2.92;;;14.90;93.30;;;;;;5044312;28;20076;-59
2021/08/26 03:07:56;;;;;;;16.45;3.35;;;15.00;93.40;;;;;;5051598;28;20116;-59
2021/08/26 03:10:24;;;;;;;14.10;3.08;;;14.90;93.40;;;;;;5034502;28;20076;-59
2021/08/26 03:12:49;;;;;;;21.95;3.38;;;14.90;93.50;;;;;;5034504;28;20033;-59
2021/08/26 03:15:15;;;;;;;19.95;3.28;;;14.90;93.60;;;;;;5034203;28;20547;-58
2021/08/26 03:17:40;;;;;;;16.05;3.20;;;14.90;93.60;;;;;;5051509;28;20421;-59
2021/08/26 03:20:07;;;;;;;12.73;2.75;;;14.90;93.80;;;;;;5054209;28;20075;-59
2021/08/26 03:22:33;;;;;;;10.77;2.78;;;14.90;93.80;;;;;;5036515;28;20045;-59
2021/08/26 03:24:58;;;;;;;16.70;3.30;;;14.90;93.80;;;;;;5042301;28;20048;-59
2021/08/26 03:27:24;;;;;;;12.43;2.50;;;14.90;93.80;;;;;;5042160;28;20071;-59
2021/08/26 03:29:49;;;;;;;14.85;3.38;;;14.90;93.80;;;;;;5057644;28;20051;-58
2021/08/26 03:32:15;;;;;;;12.80;2.90;;;14.90;93.80;;;;;;5053802;28;20087;-59
2021/08/26 03:34:40;;;;;;;11.95;3.00;;;14.80;93.80;;;;;;5044042;28;20112;-59
2021/08/26 03:37:06;;;;;;;16.02;3.20;;;14.80;93.80;;;;;;5046790;28;20063;-59
2021/08/26 03:39:32;;;;;;;10.50;2.40;;;14.90;93.80;;;;;;5048692;28;20116;-59
2021/08/26 03:41:57;;;;;;;12.25;2.85;;;14.80;93.90;;;;;;5042823;28;20858;-59
2021/08/26 03:44:23;;;;;;;12.07;2.72;;;14.90;94.00;;;;;;5057440;28;20046;-59
2021/08/26 03:46:48;;;;;;;13.88;2.97;;;14.80;94.00;;;;;;5053083;28;20045;-59
2021/08/26 03:49:14;;;;;;;14.70;3.05;;;14.90;94.00;;;;;;5044444;28;20063;-59
2021/08/26 03:51:39;;;;;;;14.68;2.70;;;14.90;94.00;;;;;;5045118;28;20029;-59
2021/08/26 03:54:05;;;;;;;11.10;3.05;;;14.80;94.00;;;;;;5053318;28;20043;-59
2021/08/26 03:56:30;;;;;;;16.13;3.00;;;14.80;94.00;;;;;;5034672;28;20044;-59
2021/08/26 03:58:56;;;;;;;11.93;2.60;;;14.90;94.00;;;;;;5044728;28;20459;-58
2021/08/26 04:01:22;;;;;;;12.10;2.85;;;14.90;94.20;;;;;;5051883;28;20328;-59
2021/08/26 04:03:47;;;;;;;15.93;3.17;;;14.80;94.20;;;;;;5053350;28;20446;-59
2021/08/26 04:06:12;;;;;;;13.07;2.65;;;14.90;94.20;;;;;;5063937;28;20500;-58
2021/08/26 04:08:38;;;;;;;15.02;3.42;;;14.90;94.30;;;;;;5037214;28;20038;-59
2021/08/26 04:11:04;;;;;;;15.77;2.85;;;14.80;94.40;;;;;;5047344;28;20041;-59
2021/08/26 04:13:29;;;;;;;14.82;2.80;;;14.80;94.50;;;;;;5045089;28;20100;-59
2021/08/26 04:15:55;;;;;;;17.77;3.08;;;14.80;94.80;;;;;;5044653;28;20079;-58
2021/08/26 04:18:20;;;;;;;13.20;2.88;;;14.80;94.70;;;;;;5051993;28;20087;-59
2021/08/26 04:20:46;;;;;;;14.93;2.80;;;14.70;94.80;;;;;;5039389;28;20522;-59
2021/08/26 04:23:12;;;;;;;11.88;2.50;;;14.70;94.80;;;;;;5048581;28;20122;-59
2021/08/26 04:25:37;;;;;;;12.55;2.63;;;14.70;95.00;;;;;;5053026;28;20088;-59
2021/08/26 04:28:04;;;;;;;8.68;2.53;;;14.70;95.10;;;;;;5052723;28;20474;-59
2021/08/26 04:30:29;;;;;;;11.43;2.58;;;14.70;95.20;;;;;;5065404;28;20041;-59
2021/08/26 04:32:55;;;;;;;11.57;2.78;;;14.70;95.40;;;;;;5038938;28;20040;-59
2021/08/26 04:35:20;;;;;;;11.98;3.00;;;14.60;95.50;;;;;;5051890;28;20123;-58
2021/08/26 04:37:46;;;;;;;14.50;2.88;;;14.60;95.50;;;;;;5057152;28;20053;-59
2021/08/26 04:40:12;;;;;;;13.07;2.83;;;14.60;95.70;;;;;;5056656;28;20041;-59
2021/08/26 04:42:38;;;;;;;12.60;3.03;;;14.60;95.70;;;;;;5031822;28;20105;-59
2021/08/26 04:45:04;;;;;;;16.98;3.45;;;14.60;95.70;;;;;;5036122;28;20077;-59
2021/08/26 04:47:29;;;;;;;11.07;2.65;;;14.60;95.80;;;;;;5038486;28;20090;-59
2021/08/26 04:49:55;;;;;;;13.18;2.83;;;14.60;95.80;;;;;;5036147;28;20037;-59
2021/08/26 04:52:20;;;;;;;10.23;2.55;;;14.60;95.80;;;;;;5035497;28;20075;-59
2021/08/26 04:54:46;;;;;;;13.48;3.05;;;14.60;95.80;;;;;;5052583;28;20033;-59
2021/08/26 04:57:11;;;;;;;12.40;2.67;;;14.60;95.80;;;;;;5035666;28;20041;-59
2021/08/26 04:59:37;;;;;;;15.10;3.00;;;14.60;95.70;;;;;;5044166;28;20041;-58
2021/08/26 05:02:03;;;;;;;13.02;2.63;;;14.60;95.60;;;;;;5046988;28;20051;-59
2021/08/26 05:04:28;;;;;;;13.73;2.90;;;14.60;95.70;;;;;;5051462;28;20524;-59
2021/08/26 05:06:54;;;;;;;16.30;3.33;;;14.50;95.60;;;;;;5040671;28;20034;-59
2021/08/26 05:09:20;;;;;;;14.48;3.63;;;14.60;95.70;;;;;;5053559;22;20041;-55
2021/08/26 05:11:47;;;;;;;13.77;2.90;;;14.60;95.70;;;;;;5052606;28;20443;-56
2021/08/26 05:14:12;;;;;;;13.68;2.75;;;14.60;95.70;;;;;;5033934;28;20069;-56
2021/08/26 05:16:39;;;;;;;14.82;3.13;;;14.60;95.70;;;;;;5039370;28;20033;-56
2021/08/26 05:19:05;;;;;;;14.93;3.42;;;14.70;95.70;;;;;;5051830;28;20115;-57
2021/08/26 05:21:30;;;;;;;12.77;3.35;;;14.70;95.70;;;;;;5047886;28;20073;-56
2021/08/26 05:23:56;;;;;;;13.65;2.97;;;14.70;95.80;;;;;;5049172;28;20044;-56
2021/08/26 05:26:22;;;;;;;14.40;3.30;;;14.70;95.70;;;;;;5048670;28;20522;-56
2021/08/26 05:28:52;;;;;;;16.27;3.25;;;14.70;95.80;;;;;;5029751;28;20036;-54
2021/08/26 05:31:18;;;;;;;12.23;2.90;;;14.70;95.90;;;;;;5027783;28;20447;-55
2021/08/26 05:33:48;;;;;;;17.48;3.40;;;14.70;96.00;;;;;;5053951;28;20508;-51
2021/08/26 05:36:15;;;;;;;15.60;3.85;;;14.70;96.10;;;;;;5046332;28;20043;-53
2021/08/26 05:38:41;;;;;;;12.23;3.10;;;14.70;96.10;;;;;;5038221;28;20489;-56
2021/08/26 05:41:06;;;;;;;12.50;3.30;;;14.70;96.10;;;;;;5049494;28;20353;-56
2021/08/26 05:43:32;;;;;;;14.20;2.80;;;14.70;96.20;;;;;;5045254;28;20051;-55
2021/08/26 05:45:57;;;;;;;14.25;2.97;;;14.80;96.30;;;;;;5049178;28;20236;-56
2021/08/26 05:48:23;;;;;;;12.25;3.25;;;14.80;96.30;;;;;;5041309;28;20033;-56
2021/08/26 05:50:53;;;;;;;13.43;3.90;;;14.80;96.40;;;;;;5043550;28;20044;-53
2021/08/26 05:53:19;;;;;;;16.08;3.58;;;14.90;96.40;;;;;;5022648;28;20065;-57
2021/08/26 05:55:47;;;;;;;12.95;3.50;;;15.00;96.40;;;;;;5051452;28;20067;-57
2021/08/26 05:58:13;;;;;;;15.10;3.45;;;15.00;96.40;;;;;;5040926;28;20128;-58
2021/08/26 06:00:39;;;;;;;12.20;2.97;;;15.00;96.30;;;;;;5046019;28;20095;-58
2021/08/26 06:03:05;;;;;;;14.90;3.50;;;15.00;96.20;;;;;;4999029;28;20045;-58
2021/08/26 06:05:32;;;;;;;17.90;3.67;;;15.10;96.20;;;;;;5048588;28;20068;-57
2021/08/26 06:07:58;;;;;;;12.45;3.13;;;15.00;96.10;;;;;;5045795;28;20090;-58
2021/08/26 06:10:23;;;;;;;13.25;3.50;;;15.10;96.10;;;;;;5044854;28;20119;-58
2021/08/26 06:12:49;;;;;;;11.13;3.15;;;15.10;96.00;;;;;;5045135;28;20045;-57
2021/08/26 06:15:17;;;;;;;13.05;3.40;;;15.10;95.90;;;;;;5050338;28;20098;-57
2021/08/26 06:17:45;;;;;;;17.67;3.70;;;15.10;95.90;;;;;;5050927;28;20155;-54
2021/08/26 06:20:14;;;;;;;15.55;3.80;;;15.10;95.90;;;;;;5051008;28;20052;-56
2021/08/26 06:22:40;;;;;;;10.85;3.40;;;15.20;96.00;;;;;;5052235;28;20048;-55
2021/08/26 06:25:07;;;;;;;14.95;3.35;;;15.10;96.00;;;;;;5042246;28;20422;-57
2021/08/26 06:27:39;;;;;;;13.50;3.50;;;15.10;96.00;;;;;;5023770;28;20059;-58
2021/08/26 06:30:07;;;;;;;11.35;3.60;;;15.20;96.00;;;;;;5054245;28;20038;-58
2021/08/26 06:32:32;;;;;;;14.02;3.70;;;15.20;96.10;;;;;;5037602;28;20033;-57
2021/08/26 06:34:58;;;;;;;15.13;3.60;;;15.20;96.10;;;;;;5033414;28;20067;-58
2021/08/26 06:37:28;;;;;;;17.48;4.70;;;15.30;96.20;;;;;;5032021;28;20548;-51
2021/08/26 06:39:53;;;;;;;17.98;3.92;;;15.30;96.50;;;;;;5033823;28;20040;-58
2021/08/26 06:42:19;;;;;;;15.40;4.28;;;15.30;96.20;;;;;;5046156;28;20504;-58
2021/08/26 06:44:44;;;;;;;15.68;4.20;;;15.40;96.30;;;;;;5016161;28;20044;-57
2021/08/26 06:47:10;;;;;;;14.70;4.07;;;15.40;96.30;;;;;;5039527;28;20058;-58
2021/08/26 06:49:40;;;;;;;14.48;3.80;;;15.50;96.20;;;;;;5048561;28;20040;-57
2021/08/26 06:52:05;;;;;;;15.63;3.72;;;15.50;96.30;;;;;;5017207;28;20051;-58
2021/08/26 06:54:31;;;;;;;22.10;4.63;;;15.60;96.10;;;;;;5032270;28;20041;-58
2021/08/26 06:56:57;;;;;;;13.85;3.40;;;15.70;96.00;;;;;;5041542;28;20489;-58
2021/08/26 06:59:22;;;;;;;16.58;4.45;;;15.70;95.90;;;;;;5043002;28;20123;-58
2021/08/26 07:01:48;;;;;;;16.75;4.90;;;15.80;95.90;;;;;;5050340;28;20036;-58
2021/08/26 07:04:15;;;;;;;16.25;4.60;;;15.80;95.80;;;;;;5046969;28;20044;-57
2021/08/26 07:06:42;;;;;;;18.58;4.57;;;15.80;95.70;;;;;;5008775;28;20040;-58
2021/08/26 07:09:07;;;;;;;17.00;4.05;;;15.80;95.60;;;;;;5050435;28;20033;-58
2021/08/26 07:11:36;;;;;;;18.25;4.15;;;15.80;95.50;;;;;;5048780;28;20037;-59
2021/08/26 07:14:03;;;;;;;16.75;4.13;;;15.80;95.50;;;;;;5043742;28;20048;-58
2021/08/26 07:16:28;;;;;;;14.48;4.10;;;15.80;95.60;;;;;;5046861;28;20119;-58
2021/08/26 07:18:54;;;;;;;17.85;4.85;;;15.80;95.60;;;;;;5031234;28;20078;-58
2021/08/26 07:21:23;;;;;;;20.55;4.53;;;15.80;95.50;;;;;;5011441;28;20053;-58
2021/08/26 07:23:53;;;;;;;19.70;4.82;;;15.80;95.60;;;;;;5051484;28;20036;-58
2021/08/26 07:26:19;;;;;;;18.77;4.78;;;15.90;95.70;;;;;;5045040;28;20080;-56
2021/08/26 07:28:45;;;;;;;16.27;4.22;;;16.00;95.70;;;;;;5045936;28;20085;-56
2021/08/26 07:31:11;;;;;;;23.50;5.47;;;16.00;95.60;;;;;;5043465;28;20056;-54
2021/08/26 07:33:37;;;;;;;14.20;4.25;;;16.10;95.70;;;;;;5045446;28;20417;-57
2021/08/26 07:36:04;;;;;;;22.80;5.60;;;16.20;95.70;;;;;;5011925;28;20033;-55
2021/08/26 07:38:31;;;;;;;20.42;4.93;;;16.30;95.60;;;;;;5045780;28;20072;-56
2021/08/26 07:40:57;;;;;;;19.83;4.38;;;16.40;95.40;;;;;;5046140;28;20037;-56
2021/08/26 07:43:25;;;;;;;19.75;5.22;;;16.50;95.20;;;;;;5045676;28;20045;-56
2021/08/26 07:45:52;;;;;;;22.08;4.55;;;16.60;95.00;;;;;;5050717;28;20048;-56
2021/08/26 07:48:18;;;;;;;15.70;4.35;;;16.60;94.90;;;;;;5050254;28;20044;-56
2021/08/26 07:50:44;;;;;;;18.48;4.95;;;16.60;94.80;;;;;;5015739;28;20077;-57
2021/08/26 07:53:10;;;;;;;20.83;4.97;;;16.70;94.70;;;;;;5052604;28;20108;-57
2021/08/26 07:55:36;;;;;;;21.92;4.80;;;16.70;94.60;;;;;;5019135;28;20497;-57
2021/08/26 07:58:04;;;;;;;24.08;5.65;;;16.70;94.60;;;;;;5044769;28;20052;-57
2021/08/26 08:00:30;;;;;;;21.83;5.60;;;16.70;94.60;;;;;;4993970;28;20455;-56
2021/08/26 08:02:56;;;;;;;19.10;4.88;;;16.70;94.60;;;;;;5002271;28;20041;-57
2021/08/26 08:05:23;;;;;;;18.70;4.57;;;16.70;94.60;;;;;;5053501;28;20045;-56
2021/08/26 08:07:49;;;;;;;19.88;5.45;;;16.70;94.50;;;;;;5052872;28;20049;-57
2021/08/26 08:10:16;;;;;;;22.38;4.80;;;16.80;94.60;;;;;;5053151;28;20365;-56
2021/08/26 08:12:45;;;;;;;21.23;4.63;;;16.90;94.90;;;;;;5050430;28;20087;-57
2021/08/26 08:15:11;;;;;;;23.20;5.00;;;17.00;94.50;;;;;;5053095;28;20041;-56
2021/08/26 08:17:37;;;;;;;26.90;5.22;;;17.00;94.50;;;;;;5053099;28;20572;-56
2021/08/26 08:20:05;;;;;;;22.70;5.60;;;17.00;94.40;;;;;;5050936;28;20038;-56
2021/08/26 08:22:31;;;;;;;21.92;5.63;;;17.00;94.20;;;;;;5043843;28;20451;-56
2021/08/26 08:24:58;;;;;;;24.02;5.97;;;17.00;94.10;;;;;;5053702;28;20041;-56
2021/08/26 08:27:25;;;;;;;21.52;5.45;;;17.00;94.10;;;;;;5055009;28;20497;-56
2021/08/26 08:29:50;;;;;;;21.67;5.90;;;17.10;94.10;;;;;;5039419;28;20087;-56
2021/08/26 08:32:16;;;;;;;24.55;4.90;;;17.30;93.80;;;;;;5034198;28;20139;-57
2021/08/26 08:34:41;;;;;;;25.45;5.20;;;17.50;93.90;;;;;;5044669;28;20037;-53
2021/08/26 08:37:07;;;;;;;26.20;5.50;;;17.50;93.70;;;;;;5049178;28;20044;-53
2021/08/26 08:39:38;;;;;;;26.20;5.40;;;17.50;93.20;;;;;;5053032;28;20041;-54
2021/08/26 08:42:04;;;;;;;23.02;5.78;;;17.50;93.00;;;;;;5028061;28;20401;-51
2021/08/26 08:44:30;;;;;;;21.35;5.18;;;17.40;93.20;;;;;;5009099;28;20107;-54
2021/08/26 08:46:58;;;;;;;24.27;5.10;;;17.40;93.30;;;;;;5052845;28;20033;-54
2021/08/26 08:49:29;;;;;;;23.23;5.38;;;17.30;93.30;;;;;;5054620;28;20075;-53
2021/08/26 08:51:55;;;;;;;23.83;6.18;;;17.40;93.30;;;;;;5040181;28;20029;-56
2021/08/26 08:54:23;;;;;;;25.20;5.47;;;17.50;92.30;;;;;;5053384;28;20550;-53
2021/08/26 08:56:49;;;;;;;22.10;5.13;;;17.50;92.50;;;;;;5037698;28;20060;-54
2021/08/26 08:59:15;;;;;;;26.80;5.20;;;17.60;92.80;;;;;;5041511;28;20041;-56
2021/08/26 09:01:50;;;;;;;19.15;4.80;;;17.80;92.70;;;;;;5019593;28;20055;-57
2021/08/26 09:04:16;;;;;;;23.77;5.32;;;17.90;92.40;;;;;;5023814;28;20041;-58
2021/08/26 09:06:43;;;;;;;17.98;4.78;;;18.00;91.70;;;;;;5047573;28;20503;-58
2021/08/26 09:09:11;;;;;;;23.30;5.43;;;18.20;91.70;;;;;;5053038;28;20056;-59
2021/08/26 09:11:46;;;;;;;19.60;5.38;;;18.20;91.50;;;;;;5043231;28;20041;-59
2021/08/26 09:14:13;;;;;;;19.55;4.95;;;18.10;91.40;;;;;;5049983;28;20067;-58
2021/08/26 09:16:45;;;;;;;27.05;5.30;;;18.10;91.70;;;;;;5049740;28;20498;-59
2021/08/26 09:19:28;;;;;;;18.25;5.50;;;18.10;91.80;;;;;;5028889;28;20044;-58
2021/08/26 09:21:55;;;;;;;23.98;6.70;;;18.10;91.60;;;;;;5042654;28;20065;-58
2021/08/26 09:24:20;;;;;;;22.08;5.32;;;18.20;91.70;;;;;;5047397;28;20052;-59
2021/08/26 09:26:48;;;;;;;25.17;4.93;;;18.10;91.50;;;;;;5050360;28;20408;-59
2021/08/26 09:29:14;;;;;;;21.80;5.57;;;18.20;91.60;;;;;;5049397;28;20068;-59
2021/08/26 09:31:44;;;;;;;29.40;6.28;;;18.10;91.60;;;;;;5036582;28;20098;-59
2021/08/26 09:34:16;;;;;;;19.25;5.05;;;18.10;91.60;;;;;;5016700;28;20041;-58
2021/08/26 09:36:47;;;;;;;20.85;5.32;;;18.10;91.70;;;;;;5042992;28;20044;-56
2021/08/26 09:39:18;;;;;;;25.20;5.75;;;18.10;91.70;;;;;;5028671;28;20123;-59
2021/08/26 09:41:58;;;;;;;22.70;5.82;;;18.00;91.70;;;;;;5049172;28;20040;-57
2021/08/26 09:44:35;;;;;;;18.90;5.30;;;18.00;91.70;;;;;;5051380;28;20108;-58
2021/08/26 09:47:04;;;;;;;18.90;5.40;;;18.10;91.80;;;;;;5038139;28;20048;-58
2021/08/26 09:49:37;;;;;;;24.10;5.07;;;18.30;91.80;;;;;;5032872;28;20048;-58
2021/08/26 09:52:08;;;;;;;24.75;5.82;;;18.30;91.70;;;;;;5052500;28;20037;-59
2021/08/26 09:54:37;;;;;;;17.85;5.20;;;18.30;91.70;;;;;;5026424;28;20032;-57
2021/08/26 09:57:05;;;;;;;19.70;5.20;;;18.20;91.60;;;;;;5010185;28;20127;-59
2021/08/26 10:00:09;;;;;;;20.65;5.47;;;18.30;91.90;;;;;;5051176;28;20040;-58
2021/08/26 10:02:47;;;;;;;21.35;5.22;;;18.50;91.80;;;;;;4971758;28;20057;-59
2021/08/26 10:05:17;;;;;;;24.27;5.40;;;18.50;91.80;;;;;;4968811;28;20096;-59
2021/08/26 10:07:45;;;;;;;19.85;4.28;;;18.70;91.80;;;;;;5010388;28;20084;-58
2021/08/26 10:10:11;;;;;;;16.85;4.05;;;18.80;91.50;;;;;;5042118;28;20041;-58
2021/08/26 10:12:37;;;;;;;18.35;4.70;;;18.80;90.70;;;;;;5044704;28;20033;-57
2021/08/26 10:15:03;;;;;;;18.30;4.78;;;18.80;90.30;;;;;;5048796;28;20493;-58
2021/08/26 10:17:31;;;;;;;17.20;4.97;;;18.80;90.00;;;;;;5050915;28;20602;-59
2021/08/26 10:20:00;;;;;;;17.13;4.72;;;18.70;89.40;;;;;;5026604;28;20040;-59
2021/08/26 10:22:26;;;;;;;16.85;4.75;;;18.70;89.70;;;;;;5051077;28;20049;-59
2021/08/26 10:24:56;;;;;;;22.58;5.55;;;18.70;90.00;;;;;;5031495;28;20040;-59
2021/08/26 10:27:28;;;;;;;18.52;5.25;;;18.80;89.60;;;;;;5052107;28;20055;-57
2021/08/26 10:29:54;;;;;;;20.48;5.05;;;19.10;87.80;;;;;;5051562;28;20033;-59
2021/08/26 10:32:24;;;;;;;21.15;5.32;;;19.20;88.40;;;;;;5048446;28;20404;-59
2021/08/26 10:35:14;;;;;;;19.38;5.00;;;19.20;89.10;;;;;;5044471;28;20032;-60
2021/08/26 10:37:55;;;;;;;16.98;5.13;;;19.30;88.20;;;;;;5052410;28;20033;-52
2021/08/26 10:40:37;;;;;;;16.73;4.50;;;19.40;83.10;;;;;;5052900;28;20037;-54
2021/08/26 10:43:06;;;;;;;17.58;4.38;;;19.40;80.70;;;;;;5036654;28;20038;-50
2021/08/26 10:46:00;;;;;;;13.65;4.35;;;19.30;82.20;;;;;;5024446;28;20033;-55
2021/08/26 10:48:27;;;;;;;15.57;4.30;;;19.10;84.00;;;;;;5048428;28;20459;-51
2021/08/26 10:51:06;;;;;;;14.15;4.50;;;19.20;84.50;;;;;;5044516;28;20037;-53
2021/08/26 10:53:38;;;;;;;17.50;4.60;;;19.40;84.20;;;;;;5042593;28;20100;-52
2021/08/26 10:56:35;;;;;;;21.93;5.27;;;19.50;83.70;;;;;;5031182;28;20037;-55
2021/08/26 10:59:02;;;;;;;19.48;4.45;;;19.70;84.90;;;;;;5035941;28;20575;-57
2021/08/26 11:01:28;;;;;;;15.82;4.40;;;19.70;84.40;;;;;;5047299;28;20072;-54
2021/08/26 11:03:56;;;;;;;19.65;4.45;;;19.60;83.70;;;;;;5042836;28;20501;-57
2021/08/26 11:06:27;;;;;;;20.80;4.75;;;19.60;83.90;;;;;;5005366;28;20041;-57
2021/08/26 11:08:59;;;;;;;12.93;4.00;;;19.70;83.40;;;;;;5050593;28;20071;-56
2021/08/26 11:11:27;;;;;;;19.33;5.05;;;19.90;82.60;;;;;;5021456;28;20503;-57
2021/08/26 11:14:07;;;;;;;15.10;4.05;;;20.00;83.20;;;;;;5048261;28;20033;-57
2021/08/26 11:16:34;;;;;;;16.13;3.70;;;20.10;82.10;;;;;;5048695;28;20041;-57
2021/08/26 11:19:11;;;;;;;17.95;4.20;;;20.20;82.40;;;;;;5054430;28;20423;-56
2021/08/26 11:21:46;;;;;;;21.45;4.35;;;20.20;80.60;;;;;;5052832;28;20518;-57
2021/08/26 11:24:12;;;;;;;17.10;4.72;;;20.10;80.50;;;;;;5050900;28;20045;-57
2021/08/26 11:26:48;;;;;;;16.13;3.97;;;19.80;81.00;;;;;;5051957;28;20041;-57
2021/08/26 11:29:20;;;;;;;15.27;3.80;;;19.60;81.10;;;;;;5032276;28;20112;-57
2021/08/26 11:31:55;;;;;;;12.48;4.40;;;19.40;81.10;;;;;;5054185;28;20090;-57
2021/08/26 11:34:31;;;;;;;16.15;3.95;;;19.30;81.80;;;;;;5048504;28;20092;-58
2021/08/26 11:37:15;;;;;;;13.55;4.18;;;19.50;82.30;;;;;;5054598;28;20044;-57
2021/08/26 11:39:45;;;;;;;15.32;3.70;;;19.70;78.40;;;;;;5011581;28;20048;-57
2021/08/26 11:42:20;;;;;;;16.25;4.72;;;19.90;77.00;;;;;;5052413;28;20072;-55
2021/08/26 11:45:06;;;;;;;17.48;3.90;;;20.00;77.50;;;;;;5048293;28;20168;-57
2021/08/26 11:47:35;;;;;;;11.68;3.35;;;20.20;78.80;;;;;;5050827;28;20039;-57
2021/08/26 11:50:15;;;;;;;13.68;3.75;;;20.30;78.90;;;;;;5053081;28;20035;-57
2021/08/26 11:52:42;;;;;;;20.42;4.78;;;20.40;79.00;;;;;;5051466;28;20032;-57
2021/08/26 11:55:08;;;;;;;14.98;3.85;;;20.40;77.50;;;;;;5053213;28;20358;-57
2021/08/26 11:57:35;;;;;;;12.93;4.00;;;20.50;77.60;;;;;;5050813;28;20029;-58
2021/08/26 12:00:14;;;;;;;13.50;4.13;;;20.60;78.00;;;;;;5055583;28;20433;-59
2021/08/26 12:02:50;;;;;;;15.70;4.03;;;20.70;78.30;;;;;;5053653;28;20095;-58
2021/08/26 12:05:17;;;;;;;14.82;4.10;;;20.80;78.10;;;;;;5035521;28;20037;-58
2021/08/26 12:07:44;;;;;;;9.45;3.35;;;21.00;74.60;;;;;;5053077;28;20032;-57
2021/08/26 12:10:32;;;;;;;10.73;3.65;;;21.00;73.40;;;;;;5023930;28;20049;-57
2021/08/26 12:13:03;;;;;;;9.50;2.92;;;21.10;71.60;;;;;;5020912;28;20038;-57
2021/08/26 12:15:39;;;;;;;12.30;3.60;;;21.20;73.50;;;;;;5044355;28;20572;-57
2021/08/26 12:18:10;;;;;;;15.88;3.67;;;21.30;73.60;;;;;;5046643;28;20044;-57
2021/08/26 12:20:45;;;;;;;19.53;4.33;;;21.20;73.60;;;;;;5041249;28;20562;-57
2021/08/26 12:23:15;;;;;;;13.80;3.40;;;21.10;72.00;;;;;;5053478;28;20049;-58
2021/08/26 12:25:41;;;;;;;12.32;3.33;;;21.00;70.20;;;;;;5040946;28;20103;-57
2021/08/26 12:28:09;;;;;;;11.85;3.28;;;20.80;71.80;;;;;;5052167;28;20425;-58
2021/08/26 12:30:42;;;;;;;12.65;3.50;;;20.50;73.00;;;;;;5050223;28;20041;-57
2021/08/26 12:33:18;;;;;;;12.85;3.10;;;20.40;72.60;;;;;;5053867;28;20115;-58
2021/08/26 12:35:47;;;;;;;12.55;3.42;;;20.30;73.60;;;;;;5048171;28;20033;-57
2021/08/26 12:38:16;;;;;;;13.40;3.40;;;20.30;73.70;;;;;;5017250;28;20045;-55
2021/08/26 12:40:50;;;;;;;14.10;3.50;;;20.20;74.00;;;;;;5050330;28;20049;-55
2021/08/26 12:43:17;;;;;;;14.18;3.88;;;20.30;74.00;;;;;;5053015;28;20036;-57
2021/08/26 12:45:43;;;;;;;14.20;3.53;;;20.30;73.90;;;;;;5053737;28;20067;-58
2021/08/26 12:48:29;;;;;;;16.38;3.95;;;20.40;73.90;;;;;;5042395;28;20685;-59
2021/08/26 12:51:06;;;;;;;17.48;4.32;;;20.20;75.70;;;;;;5050916;28;20485;-59